Time;durP1;ratioP1;P1;durP2;ratioP2;P2;SDS_P1;SDS_P2;PMS_P1;PMS_P2;Temp;Humidity;BMP_temperature;BMP_pressure;BME280_temperature;BME280_humidity;BME280_pressure;Samples;Min_cycle;Max_cycle;Signal;HPM_P1;HPM_P2
2022/07/24 00:01:10;;;;;;;6.63;4.88;;;18.90;99.90;;;;;;5107769;28;20047;-65
2022/07/24 00:03:36;;;;;;;6.63;5.18;;;18.90;99.90;;;;;;5104884;28;20049;-65
2022/07/24 00:06:01;;;;;;;7.53;4.90;;;18.90;99.90;;;;;;5108907;28;20044;-65
2022/07/24 00:08:29;;;;;;;6.72;5.25;;;18.90;99.90;;;;;;5108633;28;20484;-65
2022/07/24 00:10:55;;;;;;;6.60;5.25;;;18.80;99.90;;;;;;5108606;28;20039;-66
2022/07/24 00:13:20;;;;;;;7.03;5.47;;;18.80;99.90;;;;;;5109754;28;20434;-65
2022/07/24 00:15:46;;;;;;;7.32;5.50;;;18.80;99.90;;;;;;5108828;28;20087;-66
2022/07/24 00:18:11;;;;;;;7.57;5.15;;;18.80;99.90;;;;;;5106147;28;20047;-66
2022/07/24 00:20:37;;;;;;;7.72;5.75;;;18.80;99.90;;;;;;5108088;28;20413;-66
2022/07/24 00:23:03;;;;;;;6.95;5.32;;;18.80;99.90;;;;;;5105980;28;20451;-66
2022/07/24 00:25:28;;;;;;;8.60;5.53;;;18.80;99.90;;;;;;5108410;28;20043;-65
2022/07/24 00:27:54;;;;;;;7.00;5.13;;;18.70;99.90;;;;;;5104935;28;20055;-65
2022/07/24 00:30:20;;;;;;;8.23;5.60;;;18.70;99.90;;;;;;5107766;28;20051;-66
2022/07/24 00:32:45;;;;;;;7.07;5.53;;;18.70;99.90;;;;;;5107745;28;20115;-66
2022/07/24 00:35:13;;;;;;;7.30;5.68;;;18.70;99.90;;;;;;5106826;28;20044;-66
2022/07/24 00:37:38;;;;;;;6.78;5.30;;;18.70;99.90;;;;;;5107911;28;20089;-66
2022/07/24 00:40:05;;;;;;;6.80;5.03;;;18.60;99.90;;;;;;5106296;28;20071;-66
2022/07/24 00:42:30;;;;;;;6.57;5.10;;;18.60;99.90;;;;;;5108065;28;20152;-66
2022/07/24 00:44:56;;;;;;;9.48;5.82;;;18.60;99.90;;;;;;5109181;28;20085;-66
2022/07/24 00:47:21;;;;;;;7.22;5.35;;;18.60;99.90;;;;;;5107200;28;20048;-66
2022/07/24 00:49:47;;;;;;;6.95;5.75;;;18.60;99.90;;;;;;5106149;28;20118;-65
2022/07/24 00:52:13;;;;;;;6.65;5.32;;;18.60;99.90;;;;;;5107648;28;20044;-65
2022/07/24 00:54:39;;;;;;;7.30;5.30;;;18.60;99.90;;;;;;5106928;28;20116;-66
2022/07/24 00:57:05;;;;;;;6.93;5.30;;;18.50;99.90;;;;;;5105925;28;20039;-66
2022/07/24 00:59:30;;;;;;;7.88;5.32;;;18.50;99.90;;;;;;5107311;28;20047;-65
2022/07/24 01:01:56;;;;;;;8.30;5.47;;;18.60;99.90;;;;;;5105965;28;20061;-65
2022/07/24 01:04:22;;;;;;;7.30;5.20;;;18.50;99.90;;;;;;5123117;27;20412;-65
2022/07/24 01:06:48;;;;;;;8.23;5.43;;;18.50;99.90;;;;;;5106508;28;20438;-65
2022/07/24 01:09:14;;;;;;;6.70;5.28;;;18.50;99.90;;;;;;5107325;28;20074;-65
2022/07/24 01:11:41;;;;;;;6.65;4.65;;;18.40;99.90;;;;;;5106062;28;20126;-65
2022/07/24 01:14:06;;;;;;;7.68;5.20;;;18.40;99.90;;;;;;5085256;28;20479;-65
2022/07/24 01:16:33;;;;;;;8.18;5.50;;;18.40;99.90;;;;;;5107726;28;20047;-66
2022/07/24 01:18:59;;;;;;;7.65;5.13;;;18.40;99.90;;;;;;5103830;28;20044;-66
2022/07/24 01:21:25;;;;;;;6.53;5.07;;;18.30;99.90;;;;;;5101138;28;20093;-66
2022/07/24 01:23:50;;;;;;;6.97;4.88;;;18.30;99.90;;;;;;5106150;28;20183;-66
2022/07/24 01:26:16;;;;;;;9.07;5.20;;;18.30;99.90;;;;;;5107110;28;20169;-65
2022/07/24 01:28:42;;;;;;;7.20;4.82;;;18.30;99.90;;;;;;5107641;28;20039;-66
2022/07/24 01:31:08;;;;;;;6.63;5.07;;;18.30;99.90;;;;;;5105438;28;20055;-66
2022/07/24 01:33:34;;;;;;;6.60;5.13;;;18.30;99.90;;;;;;5106136;28;20130;-65
2022/07/24 01:35:59;;;;;;;7.43;4.70;;;18.30;99.90;;;;;;5098901;28;20040;-66
2022/07/24 01:38:25;;;;;;;7.75;4.97;;;18.30;99.90;;;;;;5106940;28;20067;-66
2022/07/24 01:40:51;;;;;;;7.85;5.18;;;18.30;99.90;;;;;;5100598;28;20051;-65
2022/07/24 01:43:16;;;;;;;6.95;5.00;;;18.20;99.90;;;;;;5107786;28;20458;-66
2022/07/24 01:45:42;;;;;;;6.35;4.95;;;18.20;99.90;;;;;;5105214;28;20036;-65
2022/07/24 01:48:08;;;;;;;8.75;5.03;;;18.20;99.90;;;;;;5103028;28;20079;-65
2022/07/24 01:50:33;;;;;;;7.35;5.07;;;18.20;99.90;;;;;;5104839;28;20061;-66
2022/07/24 01:53:01;;;;;;;6.03;4.68;;;18.20;99.90;;;;;;5095019;28;20050;-66
2022/07/24 01:55:27;;;;;;;7.28;4.90;;;18.20;99.90;;;;;;5108253;28;20123;-66
2022/07/24 01:57:53;;;;;;;6.90;5.30;;;18.20;99.90;;;;;;5106604;28;20110;-65
2022/07/24 02:00:18;;;;;;;7.13;5.00;;;18.10;99.90;;;;;;5104450;28;20036;-66
2022/07/24 02:02:44;;;;;;;6.47;5.10;;;18.10;99.90;;;;;;5103852;28;20580;-66
2022/07/24 02:05:12;;;;;;;5.95;4.85;;;18.10;99.90;;;;;;5106095;28;20070;-66
2022/07/24 02:07:39;;;;;;;6.28;4.88;;;18.10;99.90;;;;;;5100874;28;20107;-66
2022/07/24 02:10:06;;;;;;;6.43;4.82;;;18.10;99.90;;;;;;5106744;28;20096;-65
2022/07/24 02:12:32;;;;;;;6.63;4.90;;;18.10;99.90;;;;;;5094679;28;20055;-66
2022/07/24 02:14:57;;;;;;;7.40;5.13;;;18.10;99.90;;;;;;5103186;28;20040;-66
2022/07/24 02:17:23;;;;;;;6.97;5.28;;;18.10;99.90;;;;;;5103084;28;20039;-66
2022/07/24 02:19:48;;;;;;;7.22;4.90;;;18.10;99.90;;;;;;5108014;28;20065;-66
2022/07/24 02:22:14;;;;;;;6.97;4.90;;;18.10;99.90;;;;;;5106985;28;20115;-66
2022/07/24 02:24:39;;;;;;;7.85;5.13;;;18.10;99.90;;;;;;5104544;28;20055;-66
2022/07/24 02:27:05;;;;;;;6.45;4.53;;;18.10;99.90;;;;;;5119935;28;20397;-66
2022/07/24 02:29:31;;;;;;;7.57;5.60;;;18.10;99.90;;;;;;5100228;28;20350;-65
2022/07/24 02:31:56;;;;;;;7.50;5.13;;;18.00;99.90;;;;;;5104792;28;20031;-65
2022/07/24 02:34:22;;;;;;;6.93;5.00;;;18.00;99.90;;;;;;5107840;28;20039;-65
2022/07/24 02:36:47;;;;;;;8.05;5.00;;;18.00;99.90;;;;;;5105184;28;20130;-65
2022/07/24 02:39:13;;;;;;;9.60;5.35;;;18.00;99.90;;;;;;5103768;28;20155;-66
2022/07/24 02:41:38;;;;;;;7.75;5.15;;;18.00;99.90;;;;;;5106929;28;20095;-65
2022/07/24 02:44:04;;;;;;;8.05;5.70;;;17.90;99.90;;;;;;5107831;28;20040;-65
2022/07/24 02:46:29;;;;;;;8.60;5.72;;;17.90;99.90;;;;;;5104210;28;20471;-66
2022/07/24 02:48:55;;;;;;;8.55;5.75;;;17.90;99.90;;;;;;5100257;28;20048;-65
2022/07/24 02:51:20;;;;;;;7.07;5.13;;;17.90;99.90;;;;;;5106343;28;20042;-65
2022/07/24 02:53:46;;;;;;;8.57;5.53;;;17.90;99.90;;;;;;5105793;28;20046;-66
2022/07/24 02:56:12;;;;;;;7.95;5.25;;;17.90;99.90;;;;;;5096854;28;20044;-66
2022/07/24 02:58:37;;;;;;;7.53;5.25;;;17.90;99.90;;;;;;5111089;28;20054;-65
2022/07/24 03:01:03;;;;;;;7.28;5.25;;;17.90;99.90;;;;;;5109787;28;20047;-65
2022/07/24 03:03:29;;;;;;;8.60;5.03;;;17.80;99.90;;;;;;5110195;28;20419;-65
2022/07/24 03:05:54;;;;;;;6.90;5.07;;;17.80;99.90;;;;;;5107463;28;20074;-65
2022/07/24 03:08:20;;;;;;;8.05;5.40;;;17.90;99.90;;;;;;5109779;28;20085;-65
2022/07/24 03:10:45;;;;;;;8.43;5.40;;;17.80;99.90;;;;;;5111194;28;20046;-65
2022/07/24 03:13:12;;;;;;;6.88;5.45;;;17.80;99.90;;;;;;5108011;28;20035;-65
2022/07/24 03:15:37;;;;;;;8.35;5.55;;;17.80;99.90;;;;;;5106340;28;20139;-65
2022/07/24 03:18:03;;;;;;;8.90;5.63;;;17.80;99.90;;;;;;5102506;28;20448;-65
2022/07/24 03:20:29;;;;;;;7.75;5.88;;;17.80;99.90;;;;;;5108615;28;20437;-65
2022/07/24 03:22:56;;;;;;;7.85;5.90;;;17.80;99.90;;;;;;5108584;28;20116;-65
2022/07/24 03:25:22;;;;;;;7.78;4.93;;;17.80;99.90;;;;;;5108071;28;20540;-65
2022/07/24 03:27:48;;;;;;;8.23;5.97;;;17.70;99.90;;;;;;5108496;28;20039;-65
2022/07/24 03:30:14;;;;;;;7.07;5.35;;;17.70;99.90;;;;;;5106825;28;20059;-65
2022/07/24 03:32:40;;;;;;;8.63;5.97;;;17.70;99.90;;;;;;5109693;28;20103;-65
2022/07/24 03:35:07;;;;;;;8.85;6.00;;;17.70;99.90;;;;;;5109066;28;20381;-65
2022/07/24 03:37:33;;;;;;;8.05;5.60;;;17.70;99.90;;;;;;5106930;28;20039;-65
2022/07/24 03:39:59;;;;;;;7.60;5.40;;;17.80;99.90;;;;;;5108234;28;20048;-65
2022/07/24 03:42:25;;;;;;;8.77;5.70;;;17.80;99.90;;;;;;5108388;28;20139;-65
2022/07/24 03:44:51;;;;;;;9.25;6.55;;;17.80;99.90;;;;;;5106311;28;20044;-65
2022/07/24 03:47:16;;;;;;;8.02;6.03;;;17.70;99.90;;;;;;5096135;28;20123;-65
2022/07/24 03:49:42;;;;;;;9.07;6.35;;;17.70;99.90;;;;;;5103642;28;20055;-65
2022/07/24 03:52:07;;;;;;;8.18;5.95;;;17.70;99.90;;;;;;5097766;28;20397;-65
2022/07/24 03:54:33;;;;;;;7.95;6.25;;;17.70;99.90;;;;;;5107221;28;20258;-65
2022/07/24 03:56:58;;;;;;;7.75;6.15;;;17.70;99.90;;;;;;5102391;28;20055;-66
2022/07/24 03:59:24;;;;;;;9.50;6.90;;;17.70;99.90;;;;;;5106357;28;20038;-66
2022/07/24 04:01:49;;;;;;;9.40;6.30;;;17.70;99.90;;;;;;5108262;28;20051;-65
2022/07/24 04:04:15;;;;;;;9.30;6.30;;;17.70;99.90;;;;;;5109528;28;20119;-65
2022/07/24 04:06:41;;;;;;;10.40;6.80;;;17.70;99.90;;;;;;5107210;28;20044;-65
2022/07/24 04:09:07;;;;;;;7.95;6.72;;;17.80;99.90;;;;;;5107097;28;20369;-65
2022/07/24 04:11:33;;;;;;;7.85;6.25;;;17.80;99.90;;;;;;5093394;27;20431;-65
2022/07/24 04:13:59;;;;;;;9.88;6.10;;;17.80;99.90;;;;;;5099649;28;20150;-65
2022/07/24 04:16:24;;;;;;;9.43;6.18;;;17.80;99.90;;;;;;5106713;28;20197;-66
2022/07/24 04:18:50;;;;;;;9.70;6.40;;;17.80;99.90;;;;;;5107751;28;20040;-65
2022/07/24 04:21:16;;;;;;;7.88;6.60;;;17.80;99.90;;;;;;5107550;28;20112;-65
2022/07/24 04:23:42;;;;;;;9.30;6.60;;;17.80;99.90;;;;;;5095636;28;20055;-65
2022/07/24 04:26:08;;;;;;;9.02;6.22;;;17.80;99.90;;;;;;5106994;27;20103;-65
2022/07/24 04:28:33;;;;;;;10.77;6.95;;;17.80;99.90;;;;;;5109065;28;20035;-65
2022/07/24 04:30:59;;;;;;;9.48;6.57;;;17.90;99.90;;;;;;5101405;28;20113;-66
2022/07/24 04:33:25;;;;;;;8.35;6.68;;;17.90;99.90;;;;;;5104431;28;20046;-66
2022/07/24 04:35:50;;;;;;;9.40;6.43;;;17.90;99.90;;;;;;5108222;28;20092;-66
2022/07/24 04:38:16;;;;;;;10.45;6.63;;;17.90;99.90;;;;;;5099982;28;20072;-66
2022/07/24 04:40:43;;;;;;;11.18;7.13;;;17.80;99.90;;;;;;5104816;28;20109;-66
2022/07/24 04:43:09;;;;;;;8.77;6.90;;;17.90;99.90;;;;;;5102029;28;20101;-66
2022/07/24 04:45:35;;;;;;;8.77;7.38;;;17.90;99.90;;;;;;5102003;28;20047;-66
2022/07/24 04:48:00;;;;;;;8.68;6.93;;;17.90;99.90;;;;;;5099175;28;20127;-66
2022/07/24 04:50:26;;;;;;;10.70;7.45;;;18.00;99.90;;;;;;5106150;28;20032;-66
2022/07/24 04:52:51;;;;;;;10.30;7.28;;;18.00;99.90;;;;;;5102224;28;20115;-66
2022/07/24 04:55:17;;;;;;;10.50;7.65;;;18.00;99.90;;;;;;5107324;28;20362;-66
2022/07/24 04:57:43;;;;;;;9.48;7.28;;;18.10;99.90;;;;;;5107389;28;20035;-66
2022/07/24 05:00:11;;;;;;;11.52;8.23;;;18.10;99.90;;;;;;5105790;28;20400;-66
2022/07/24 05:02:37;;;;;;;10.30;7.68;;;18.10;99.90;;;;;;5094677;28;20057;-66
2022/07/24 05:05:04;;;;;;;9.73;7.40;;;18.10;99.90;;;;;;5106571;27;20048;-66
2022/07/24 05:07:29;;;;;;;10.18;8.13;;;18.10;99.90;;;;;;5102473;28;20339;-66
2022/07/24 05:09:56;;;;;;;8.80;7.55;;;18.20;99.90;;;;;;5105847;28;20039;-66
2022/07/24 05:12:21;;;;;;;10.13;8.35;;;18.30;99.90;;;;;;5110353;27;20031;-66
2022/07/24 05:14:47;;;;;;;11.43;8.02;;;18.50;99.90;;;;;;5106841;27;20058;-66
2022/07/24 05:17:12;;;;;;;10.50;8.15;;;18.50;99.90;;;;;;5095160;28;20054;-67
2022/07/24 05:19:38;;;;;;;12.68;8.40;;;18.70;99.90;;;;;;5105369;28;20154;-67
2022/07/24 05:22:03;;;;;;;10.95;7.90;;;18.80;99.90;;;;;;5101520;28;20104;-67
2022/07/24 05:24:29;;;;;;;12.27;8.18;;;19.00;99.90;;;;;;5109151;28;20093;-66
2022/07/24 05:26:55;;;;;;;10.35;8.20;;;19.10;99.90;;;;;;5105747;28;20039;-66
2022/07/24 05:29:20;;;;;;;13.40;8.30;;;19.10;99.90;;;;;;5109055;28;20518;-67
2022/07/24 05:31:46;;;;;;;10.88;7.82;;;19.20;99.90;;;;;;5087062;28;20043;-67
2022/07/24 05:34:12;;;;;;;11.32;8.57;;;19.40;99.90;;;;;;5106906;28;20047;-66
2022/07/24 05:36:38;;;;;;;10.00;8.43;;;19.50;99.90;;;;;;5102966;28;20321;-67
2022/07/24 05:39:04;;;;;;;10.38;8.10;;;19.70;99.90;;;;;;5106114;28;20432;-67
2022/07/24 05:41:29;;;;;;;10.65;8.20;;;19.80;99.90;;;;;;5107853;28;20545;-67
2022/07/24 05:43:55;;;;;;;12.25;9.00;;;19.90;99.90;;;;;;5106316;28;20167;-67
2022/07/24 05:46:20;;;;;;;12.15;9.07;;;20.10;99.90;;;;;;5098690;28;20126;-67
2022/07/24 05:48:46;;;;;;;10.73;9.15;;;20.20;99.90;;;;;;5107009;28;20465;-66
2022/07/24 05:51:12;;;;;;;11.85;8.63;;;20.30;99.90;;;;;;5106498;28;20050;-67
2022/07/24 05:53:37;;;;;;;11.18;8.88;;;20.40;99.90;;;;;;5105729;28;20439;-67
2022/07/24 05:56:03;;;;;;;11.45;8.55;;;20.50;99.90;;;;;;5106879;28;20047;-67
2022/07/24 05:58:29;;;;;;;12.30;9.43;;;20.60;99.90;;;;;;5106334;28;20078;-67
2022/07/24 06:00:55;;;;;;;13.05;9.70;;;20.60;99.90;;;;;;5107254;28;20083;-67
2022/07/24 06:03:21;;;;;;;13.65;10.05;;;20.70;99.90;;;;;;5105748;28;20046;-67
2022/07/24 06:05:46;;;;;;;11.80;8.75;;;20.90;99.90;;;;;;5106064;28;20131;-67
2022/07/24 06:08:12;;;;;;;12.68;10.00;;;20.80;99.90;;;;;;5105896;28;20079;-67
2022/07/24 06:10:38;;;;;;;12.90;9.77;;;20.90;99.90;;;;;;5104906;28;20431;-68
2022/07/24 06:13:03;;;;;;;11.88;9.95;;;20.90;99.90;;;;;;5104745;28;20042;-67
2022/07/24 06:15:29;;;;;;;12.50;10.02;;;21.00;99.90;;;;;;5104785;28;20044;-68
2022/07/24 06:17:55;;;;;;;13.38;10.80;;;21.20;99.90;;;;;;5104072;28;20067;-68
2022/07/24 06:20:20;;;;;;;11.60;10.20;;;21.20;99.90;;;;;;5097168;28;20032;-68
2022/07/24 06:22:46;;;;;;;14.07;10.00;;;21.30;99.90;;;;;;5103506;28;20151;-68
2022/07/24 06:25:12;;;;;;;15.15;11.30;;;21.40;99.90;;;;;;5100966;28;20453;-68
2022/07/24 06:27:48;;;;;;;14.25;10.60;;;21.40;99.90;;;;;;5106082;28;20142;-67
2022/07/24 06:30:16;;;;;;;12.95;10.43;;;21.50;99.90;;;;;;5102449;28;20505;-67
2022/07/24 06:32:43;;;;;;;11.13;9.90;;;21.60;99.90;;;;;;5109515;28;20090;-67
2022/07/24 06:35:09;;;;;;;16.38;11.98;;;21.70;99.90;;;;;;5111121;28;20343;-67
2022/07/24 06:37:34;;;;;;;12.45;10.27;;;21.80;99.90;;;;;;5108557;28;20061;-67
2022/07/24 06:40:00;;;;;;;14.38;11.52;;;21.90;99.90;;;;;;5108236;28;20084;-67
2022/07/24 06:42:25;;;;;;;13.18;10.93;;;21.90;99.90;;;;;;5108225;28;20055;-68
2022/07/24 06:44:51;;;;;;;15.07;11.13;;;21.90;99.90;;;;;;5105460;28;20122;-67
2022/07/24 06:47:17;;;;;;;13.02;11.05;;;22.00;99.90;;;;;;5108470;28;20039;-67
2022/07/24 06:49:42;;;;;;;14.50;12.80;;;22.10;99.90;;;;;;5110825;28;20047;-67
2022/07/24 06:52:08;;;;;;;15.88;13.20;;;22.10;99.90;;;;;;5105473;28;20047;-67
2022/07/24 06:54:33;;;;;;;15.10;12.27;;;22.10;99.90;;;;;;5109182;28;20031;-65
2022/07/24 06:56:59;;;;;;;14.68;13.13;;;22.30;99.90;;;;;;5105762;28;20046;-66
2022/07/24 06:59:24;;;;;;;14.77;12.25;;;22.30;99.90;;;;;;5107163;28;20043;-66
2022/07/24 07:01:51;;;;;;;14.30;11.20;;;22.40;99.90;;;;;;5103950;28;20143;-65
2022/07/24 07:04:17;;;;;;;15.70;12.35;;;22.50;99.90;;;;;;5107540;28;20047;-65
2022/07/24 07:06:42;;;;;;;16.55;11.60;;;22.50;99.90;;;;;;5102525;28;20036;-65
2022/07/24 07:09:08;;;;;;;13.00;10.43;;;22.60;99.90;;;;;;5105650;28;20501;-66
2022/07/24 07:11:33;;;;;;;13.07;11.25;;;22.60;99.90;;;;;;5103404;28;20126;-67
2022/07/24 07:13:59;;;;;;;12.82;9.63;;;22.70;99.90;;;;;;5111323;28;20504;-66
2022/07/24 07:16:24;;;;;;;14.02;10.25;;;22.80;99.90;;;;;;5110965;28;20032;-68
2022/07/24 07:18:50;;;;;;;12.23;9.60;;;23.00;99.90;;;;;;5106935;27;20114;-65
2022/07/24 07:21:16;;;;;;;11.90;8.73;;;23.10;99.90;;;;;;5104817;28;20193;-65
2022/07/24 07:23:41;;;;;;;11.63;9.15;;;23.20;99.90;;;;;;5103021;28;20062;-66
2022/07/24 07:26:07;;;;;;;11.05;9.60;;;23.20;99.90;;;;;;5100703;28;20391;-67
2022/07/24 07:28:32;;;;;;;12.38;8.32;;;23.30;99.90;;;;;;5107372;28;20043;-67
2022/07/24 07:30:58;;;;;;;9.90;8.10;;;23.40;99.90;;;;;;5107328;28;20057;-64
2022/07/24 07:33:23;;;;;;;11.48;8.30;;;23.50;99.90;;;;;;5103702;27;20040;-65
2022/07/24 07:35:49;;;;;;;9.00;6.53;;;23.60;99.90;;;;;;5115686;27;20082;-65
2022/07/24 07:38:15;;;;;;;8.95;6.20;;;23.70;99.90;;;;;;5111727;27;20046;-66
2022/07/24 07:40:41;;;;;;;7.43;5.57;;;23.80;99.90;;;;;;5109341;28;20154;-66
2022/07/24 07:43:06;;;;;;;6.80;5.20;;;23.90;99.90;;;;;;5108379;28;20035;-66
2022/07/24 07:45:32;;;;;;;7.75;5.13;;;23.90;99.90;;;;;;5110941;28;20115;-66
2022/07/24 07:47:57;;;;;;;8.48;5.22;;;23.90;99.90;;;;;;5109898;28;20050;-66
2022/07/24 07:50:23;;;;;;;6.15;4.10;;;24.00;99.90;;;;;;5103767;28;20064;-67
2022/07/24 07:52:48;;;;;;;5.43;3.60;;;24.20;99.10;;;;;;5102887;28;20055;-67
2022/07/24 07:55:14;;;;;;;5.68;3.50;;;24.40;98.60;;;;;;5109430;28;20389;-67
2022/07/24 07:57:41;;;;;;;6.10;3.30;;;24.40;98.20;;;;;;5109300;27;20071;-66
2022/07/24 08:00:08;;;;;;;5.88;3.10;;;24.50;97.50;;;;;;5105073;28;20047;-66
2022/07/24 08:02:33;;;;;;;7.18;3.33;;;24.50;97.10;;;;;;5100138;28;20050;-64
2022/07/24 08:04:59;;;;;;;4.95;3.38;;;24.60;96.70;;;;;;5103716;27;20040;-65
2022/07/24 08:07:24;;;;;;;6.40;3.40;;;24.60;96.30;;;;;;5107834;27;20060;-65
2022/07/24 08:09:50;;;;;;;5.75;3.50;;;24.60;96.20;;;;;;5102977;28;20043;-67
2022/07/24 08:12:15;;;;;;;5.65;3.40;;;24.80;95.90;;;;;;5102524;28;20447;-66
2022/07/24 08:14:41;;;;;;;4.80;3.35;;;25.00;95.70;;;;;;5105266;28;20155;-67
2022/07/24 08:17:06;;;;;;;6.57;3.20;;;25.20;95.70;;;;;;5099138;28;20051;-67
2022/07/24 08:19:32;;;;;;;6.30;3.15;;;25.50;95.90;;;;;;5107043;28;20348;-66
2022/07/24 08:21:58;;;;;;;7.05;3.50;;;25.70;95.50;;;;;;5104997;28;20035;-67
2022/07/24 08:24:23;;;;;;;5.40;3.50;;;25.60;95.10;;;;;;5106644;28;20135;-66
2022/07/24 08:26:50;;;;;;;5.85;3.55;;;25.60;94.90;;;;;;5108267;28;20434;-67
2022/07/24 08:29:16;;;;;;;5.43;3.55;;;25.60;94.30;;;;;;5108794;28;20054;-66
2022/07/24 08:31:42;;;;;;;5.05;3.50;;;25.70;94.80;;;;;;5104450;28;20395;-66
2022/07/24 08:34:08;;;;;;;5.90;3.35;;;25.80;94.70;;;;;;5108492;28;20039;-66
2022/07/24 08:36:34;;;;;;;4.35;3.05;;;25.70;94.30;;;;;;5108146;28;20040;-66
2022/07/24 08:39:00;;;;;;;6.30;3.20;;;25.50;94.10;;;;;;5107275;28;20402;-66
2022/07/24 08:41:32;;;;;;;5.38;3.20;;;25.40;93.70;;;;;;5106185;28;20036;-66
2022/07/24 08:43:59;;;;;;;5.13;3.20;;;25.20;93.80;;;;;;5108234;28;20048;-67
2022/07/24 08:46:26;;;;;;;6.47;3.28;;;25.30;94.60;;;;;;5106368;28;20046;-67
2022/07/24 08:48:53;;;;;;;6.18;2.80;;;25.40;94.40;;;;;;5100248;28;20065;-69
2022/07/24 08:51:19;;;;;;;6.13;2.90;;;25.40;93.90;;;;;;5105669;28;20044;-70
2022/07/24 08:53:47;;;;;;;4.38;2.70;;;25.50;93.40;;;;;;5099975;28;20133;-69
2022/07/24 08:56:12;;;;;;;4.35;2.90;;;25.60;93.50;;;;;;5099808;28;20051;-67
2022/07/24 08:58:39;;;;;;;5.03;2.63;;;25.70;93.40;;;;;;5103933;28;20043;-67
2022/07/24 09:01:06;;;;;;;4.18;2.63;;;25.90;93.80;;;;;;5101759;28;20044;-69
2022/07/24 09:03:39;;;;;;;4.82;2.63;;;26.10;93.50;;;;;;5099649;28;20126;-68
2022/07/24 09:06:07;;;;;;;5.22;2.47;;;26.20;92.40;;;;;;5099190;28;20039;-68
2022/07/24 09:08:33;;;;;;;3.53;2.20;;;26.20;91.50;;;;;;5101611;28;20055;-69
2022/07/24 09:11:04;;;;;;;4.50;2.42;;;26.30;91.90;;;;;;5100226;28;20429;-67
2022/07/24 09:16:25;;;;;;;3.28;2.05;;;26.40;90.80;;;;;;5100441;28;20089;-68
2022/07/24 09:19:02;;;;;;;4.30;2.40;;;26.60;90.60;;;;;;5102843;28;20084;-68
2022/07/24 09:21:32;;;;;;;4.93;2.53;;;26.60;90.40;;;;;;5100478;28;20155;-68
2022/07/24 09:24:02;;;;;;;4.60;2.50;;;26.70;90.00;;;;;;5108320;28;20066;-68
2022/07/24 09:26:52;;;;;;;4.50;2.20;;;26.80;90.00;;;;;;5107456;28;20439;-68
2022/07/24 09:29:20;;;;;;;6.70;2.67;;;26.90;88.20;;;;;;5102369;28;20052;-68
2022/07/24 09:32:07;;;;;;;3.85;2.30;;;26.90;88.70;;;;;;5107576;28;20055;-67
2022/07/24 09:34:40;;;;;;;4.05;2.17;;;27.00;89.20;;;;;;5107444;28;20386;-68
2022/07/24 09:37:07;;;;;;;3.88;2.45;;;27.00;86.90;;;;;;5104975;28;20127;-68
2022/07/24 09:39:35;;;;;;;4.38;2.55;;;27.10;87.40;;;;;;5108477;28;20085;-68
2022/07/24 09:42:02;;;;;;;4.47;2.70;;;27.00;86.40;;;;;;5106606;28;20471;-68
2022/07/24 09:44:31;;;;;;;5.90;2.58;;;26.80;86.10;;;;;;5107065;28;20123;-68
2022/07/24 09:47:04;;;;;;;4.97;2.50;;;26.80;86.10;;;;;;5106982;28;20062;-68
2022/07/24 09:49:31;;;;;;;5.03;2.50;;;26.80;86.70;;;;;;5106987;28;20176;-67
2022/07/24 09:52:14;;;;;;;4.72;2.40;;;26.90;86.50;;;;;;5107301;28;20092;-67
2022/07/24 09:54:47;;;;;;;4.50;2.47;;;26.90;87.20;;;;;;5106742;28;20115;-68
2022/07/24 09:57:26;;;;;;;4.97;2.22;;;27.00;87.10;;;;;;5106416;28;20538;-68
2022/07/24 09:59:53;;;;;;;4.00;2.10;;;27.10;86.50;;;;;;5107751;28;20077;-68
2022/07/24 10:02:25;;;;;;;4.95;2.65;;;27.20;86.90;;;;;;5106854;28;20555;-68
2022/07/24 10:04:52;;;;;;;4.15;2.58;;;27.30;87.90;;;;;;5106748;28;20413;-67
2022/07/24 10:07:20;;;;;;;4.88;2.60;;;27.40;86.30;;;;;;5109892;28;20040;-67
2022/07/24 10:09:49;;;;;;;3.92;2.10;;;27.40;85.70;;;;;;5112293;28;20062;-68
2022/07/24 10:12:17;;;;;;;4.53;2.20;;;27.40;84.00;;;;;;5111894;28;20159;-68
2022/07/24 10:14:44;;;;;;;5.10;2.35;;;27.30;82.50;;;;;;5111872;28;20533;-69
2022/07/24 10:17:11;;;;;;;3.33;2.10;;;27.40;81.50;;;;;;5109950;28;20051;-69
2022/07/24 10:19:39;;;;;;;4.07;2.30;;;27.30;82.00;;;;;;5109901;28;20459;-69
2022/07/24 10:22:11;;;;;;;4.22;2.13;;;27.40;83.00;;;;;;5111351;28;20202;-69
2022/07/24 10:24:57;;;;;;;5.05;2.47;;;27.60;83.60;;;;;;5111792;28;20047;-69
2022/07/24 10:27:33;;;;;;;3.95;2.30;;;27.60;83.10;;;;;;5106822;28;20036;-69
2022/07/24 10:30:02;;;;;;;5.13;2.30;;;27.50;81.80;;;;;;5106728;28;20058;-69
2022/07/24 10:32:31;;;;;;;4.88;2.33;;;27.40;80.90;;;;;;5105044;28;20058;-69
2022/07/24 10:35:05;;;;;;;4.47;2.20;;;27.40;81.00;;;;;;5107153;28;20146;-69
2022/07/24 10:37:37;;;;;;;3.25;2.05;;;27.40;82.00;;;;;;5110657;28;20044;-69
2022/07/24 10:40:29;;;;;;;3.85;2.10;;;27.50;81.10;;;;;;5112402;28;20047;-69
2022/07/24 10:43:08;;;;;;;3.13;2.03;;;27.70;82.20;;;;;;5097080;28;20485;-69
2022/07/24 10:45:57;;;;;;;4.07;2.10;;;27.60;82.00;;;;;;5109888;28;20035;-69
2022/07/24 10:48:23;;;;;;;4.40;2.22;;;27.70;81.70;;;;;;5099658;28;20056;-69
2022/07/24 10:51:02;;;;;;;3.70;2.10;;;27.80;82.10;;;;;;5111199;28;20054;-69
2022/07/24 10:53:37;;;;;;;3.90;2.28;;;27.90;82.50;;;;;;5108724;28;20094;-69
2022/07/24 10:56:24;;;;;;;4.47;2.25;;;27.90;82.00;;;;;;5109927;28;20055;-69
2022/07/24 10:59:02;;;;;;;4.13;2.40;;;28.10;82.00;;;;;;5110649;28;20074;-68
2022/07/24 11:01:45;;;;;;;5.88;2.17;;;28.10;80.60;;;;;;5110296;28;20123;-68
2022/07/24 11:04:20;;;;;;;4.33;2.43;;;28.10;80.10;;;;;;5110211;28;20046;-68
2022/07/24 11:06:50;;;;;;;5.95;2.47;;;28.10;80.10;;;;;;5101387;28;20146;-69
2022/07/24 11:09:18;;;;;;;4.13;2.55;;;28.10;79.30;;;;;;5110237;28;20057;-68
2022/07/24 11:11:53;;;;;;;3.55;2.22;;;28.10;79.30;;;;;;5110487;28;20514;-69
2022/07/24 11:14:23;;;;;;;4.45;2.50;;;28.20;79.00;;;;;;5110337;28;20100;-69
2022/07/24 11:16:49;;;;;;;5.03;2.55;;;28.30;78.40;;;;;;5108726;28;20070;-69
2022/07/24 11:19:15;;;;;;;5.35;2.60;;;28.20;77.40;;;;;;5109213;28;20374;-68
2022/07/24 11:21:43;;;;;;;4.32;2.47;;;28.10;77.50;;;;;;5109698;28;20040;-68
2022/07/24 11:24:24;;;;;;;4.63;2.28;;;28.20;78.50;;;;;;5109221;28;20525;-68
2022/07/24 11:26:58;;;;;;;4.22;2.50;;;28.30;78.00;;;;;;5105302;28;20035;-68
2022/07/24 11:29:32;;;;;;;4.10;2.50;;;28.30;78.40;;;;;;5109791;28;20179;-68
2022/07/24 11:32:01;;;;;;;4.63;2.33;;;28.40;76.90;;;;;;5108544;28;20044;-68
2022/07/24 11:34:28;;;;;;;3.65;2.45;;;28.40;75.20;;;;;;5110266;28;20119;-68
2022/07/24 11:36:56;;;;;;;4.50;2.60;;;28.40;75.60;;;;;;5109113;28;20436;-68
2022/07/24 11:39:31;;;;;;;6.78;2.63;;;28.50;75.10;;;;;;5109981;28;20046;-68
2022/07/24 11:41:59;;;;;;;4.20;2.53;;;28.60;75.40;;;;;;5109439;28;20096;-68
2022/07/24 11:44:46;;;;;;;4.15;2.47;;;28.60;74.10;;;;;;5111117;28;20047;-68
2022/07/24 11:47:17;;;;;;;4.40;2.30;;;28.60;74.70;;;;;;5109338;28;20134;-68
2022/07/24 11:49:45;;;;;;;3.63;2.40;;;28.60;72.80;;;;;;5095942;28;20104;-68
2022/07/24 11:52:17;;;;;;;4.95;2.30;;;28.60;72.80;;;;;;5109442;28;20048;-68
2022/07/24 11:54:44;;;;;;;4.85;2.30;;;28.70;72.80;;;;;;5091056;28;20048;-68
2022/07/24 11:57:21;;;;;;;3.67;2.45;;;28.60;72.20;;;;;;5108307;28;20044;-68
2022/07/24 11:59:49;;;;;;;4.75;2.40;;;28.80;73.30;;;;;;5108231;28;20048;-68
2022/07/24 12:02:15;;;;;;;4.72;2.30;;;29.00;72.50;;;;;;5108600;28;20039;-68
2022/07/24 12:04:42;;;;;;;4.50;2.70;;;29.00;72.70;;;;;;5109942;28;20470;-68
2022/07/24 12:07:09;;;;;;;4.68;2.40;;;29.00;72.30;;;;;;5111140;28;20043;-68
2022/07/24 12:09:48;;;;;;;4.75;2.55;;;29.10;71.80;;;;;;5111356;28;20438;-68
2022/07/24 12:12:26;;;;;;;4.10;2.60;;;29.10;73.30;;;;;;5108541;28;20052;-68
2022/07/24 12:15:03;;;;;;;3.70;2.22;;;29.10;72.40;;;;;;5104060;28;20242;-72
2022/07/24 12:17:30;;;;;;;4.18;2.35;;;29.20;71.40;;;;;;5096186;28;20040;-71
2022/07/24 12:19:57;;;;;;;4.72;2.53;;;29.20;71.90;;;;;;5105708;28;20123;-69
2022/07/24 12:22:25;;;;;;;5.28;2.47;;;29.30;71.70;;;;;;5105669;27;20554;-69
2022/07/24 12:24:52;;;;;;;4.50;2.55;;;29.20;71.00;;;;;;5106808;28;20032;-70
2022/07/24 12:27:43;;;;;;;5.97;2.60;;;29.30;71.90;;;;;;5108996;28;20127;-71
2022/07/24 12:30:30;;;;;;;4.57;2.67;;;29.40;69.40;;;;;;5105886;28;20486;-73
2022/07/24 12:33:04;;;;;;;4.75;2.67;;;29.40;69.50;;;;;;5102163;28;20406;-71
2022/07/24 12:35:32;;;;;;;3.55;2.45;;;29.50;70.70;;;;;;5108373;28;20043;-72
2022/07/24 12:37:58;;;;;;;6.53;2.70;;;29.40;69.20;;;;;;5107778;28;20079;-71
2022/07/24 12:40:35;;;;;;;4.07;2.55;;;29.50;69.30;;;;;;5106038;28;20063;-71
2022/07/24 12:43:08;;;;;;;4.50;2.40;;;29.50;69.70;;;;;;5101183;28;20043;-73
2022/07/24 12:45:34;;;;;;;3.70;2.45;;;29.40;68.70;;;;;;5106013;28;20051;-72
2022/07/24 12:48:08;;;;;;;3.55;2.33;;;29.60;69.50;;;;;;5106416;28;20048;-72